sensor_id;sensor_type;location;lat;lon;timestamp;temperature;humidity
4054;DHT22;2042;47.956;9.222;2023-09-12T00:00:48;12.80;18.50
4054;DHT22;2042;47.956;9.222;2023-09-12T00:03:14;12.70;18.50
4054;DHT22;2042;47.956;9.222;2023-09-12T00:05:39;12.70;18.50
4054;DHT22;2042;47.956;9.222;2023-09-12T00:08:05;12.70;18.50
4054;DHT22;2042;47.956;9.222;2023-09-12T00:10:31;12.70;18.80
4054;DHT22;2042;47.956;9.222;2023-09-12T00:12:57;12.70;19.70
4054;DHT22;2042;47.956;9.222;2023-09-12T00:15:24;12.70;19.30
4054;DHT22;2042;47.956;9.222;2023-09-12T00:17:49;12.70;19.20
4054;DHT22;2042;47.956;9.222;2023-09-12T00:20:15;12.70;19.00
4054;DHT22;2042;47.956;9.222;2023-09-12T00:22:40;12.60;18.80
4054;DHT22;2042;47.956;9.222;2023-09-12T00:25:06;12.60;18.80
4054;DHT22;2042;47.956;9.222;2023-09-12T00:27:32;12.50;18.90
4054;DHT22;2042;47.956;9.222;2023-09-12T00:29:57;12.50;19.30
4054;DHT22;2042;47.956;9.222;2023-09-12T00:32:23;12.50;19.30
4054;DHT22;2042;47.956;9.222;2023-09-12T00:34:49;12.50;19.90
4054;DHT22;2042;47.956;9.222;2023-09-12T00:37:14;12.50;20.70
4054;DHT22;2042;47.956;9.222;2023-09-12T00:39:40;12.50;20.70
4054;DHT22;2042;47.956;9.222;2023-09-12T00:42:06;12.50;20.80
4054;DHT22;2042;47.956;9.222;2023-09-12T00:44:34;12.40;20.80
4054;DHT22;2042;47.956;9.222;2023-09-12T00:47:01;12.40;20.50
4054;DHT22;2042;47.956;9.222;2023-09-12T00:49:28;12.40;20.30
4054;DHT22;2042;47.956;9.222;2023-09-12T00:51:56;12.40;20.30
4054;DHT22;2042;47.956;9.222;2023-09-12T00:54:22;12.30;20.50
4054;DHT22;2042;47.956;9.222;2023-09-12T00:56:47;12.30;20.70
4054;DHT22;2042;47.956;9.222;2023-09-12T00:59:16;12.30;21.10
4054;DHT22;2042;47.956;9.222;2023-09-12T01:01:43;12.30;21.40
4054;DHT22;2042;47.956;9.222;2023-09-12T01:04:10;12.30;21.60
4054;DHT22;2042;47.956;9.222;2023-09-12T01:06:37;12.30;21.50
4054;DHT22;2042;47.956;9.222;2023-09-12T01:09:03;12.30;21.30
4054;DHT22;2042;47.956;9.222;2023-09-12T01:11:28;12.30;20.80
4054;DHT22;2042;47.956;9.222;2023-09-12T01:13:54;12.20;20.40
4054;DHT22;2042;47.956;9.222;2023-09-12T01:16:20;12.20;20.60
4054;DHT22;2042;47.956;9.222;2023-09-12T01:18:46;12.20;20.90
4054;DHT22;2042;47.956;9.222;2023-09-12T01:29:24;12.20;22.00
4054;DHT22;2042;47.956;9.222;2023-09-12T01:31:51;12.20;22.50
4054;DHT22;2042;47.956;9.222;2023-09-12T01:34:18;12.20;22.10
4054;DHT22;2042;47.956;9.222;2023-09-12T01:36:44;12.20;22.00
4054;DHT22;2042;47.956;9.222;2023-09-12T01:39:10;12.10;21.90
4054;DHT22;2042;47.956;9.222;2023-09-12T01:41:39;12.10;21.80
4054;DHT22;2042;47.956;9.222;2023-09-12T01:44:06;12.10;21.70
4054;DHT22;2042;47.956;9.222;2023-09-12T01:46:34;12.10;21.70
4054;DHT22;2042;47.956;9.222;2023-09-12T01:49:02;12.10;21.90
4054;DHT22;2042;47.956;9.222;2023-09-12T01:51:30;12.00;21.60
4054;DHT22;2042;47.956;9.222;2023-09-12T01:53:56;12.00;21.70
4054;DHT22;2042;47.956;9.222;2023-09-12T01:56:23;12.00;21.60
4054;DHT22;2042;47.956;9.222;2023-09-12T01:58:49;11.90;21.40
4054;DHT22;2042;47.956;9.222;2023-09-12T02:01:15;11.90;21.40
4054;DHT22;2042;47.956;9.222;2023-09-12T02:03:41;11.80;21.50
4054;DHT22;2042;47.956;9.222;2023-09-12T02:06:07;11.80;21.80
4054;DHT22;2042;47.956;9.222;2023-09-12T02:08:32;11.80;22.10
4054;DHT22;2042;47.956;9.222;2023-09-12T02:10:58;11.80;22.00
4054;DHT22;2042;47.956;9.222;2023-09-12T02:13:24;11.80;21.90
4054;DHT22;2042;47.956;9.222;2023-09-12T02:15:49;11.80;21.90
4054;DHT22;2042;47.956;9.222;2023-09-12T02:18:15;11.80;22.00
4054;DHT22;2042;47.956;9.222;2023-09-12T02:20:41;11.80;22.30
4054;DHT22;2042;47.956;9.222;2023-09-12T02:23:10;11.80;22.30
4054;DHT22;2042;47.956;9.222;2023-09-12T02:25:35;11.80;22.40
4054;DHT22;2042;47.956;9.222;2023-09-12T02:28:02;11.80;22.40
4054;DHT22;2042;47.956;9.222;2023-09-12T02:30:28;11.80;22.30
4054;DHT22;2042;47.956;9.222;2023-09-12T02:32:53;11.70;21.90
4054;DHT22;2042;47.956;9.222;2023-09-12T02:35:19;11.70;21.90
4054;DHT22;2042;47.956;9.222;2023-09-12T02:37:44;11.60;21.40
4054;DHT22;2042;47.956;9.222;2023-09-12T02:40:10;11.60;21.40
4054;DHT22;2042;47.956;9.222;2023-09-12T02:42:37;11.50;21.50
4054;DHT22;2042;47.956;9.222;2023-09-12T02:45:04;11.50;21.50
4054;DHT22;2042;47.956;9.222;2023-09-12T02:47:29;11.50;22.00
4054;DHT22;2042;47.956;9.222;2023-09-12T02:49:55;11.50;22.30
4054;DHT22;2042;47.956;9.222;2023-09-12T02:52:21;11.50;22.60
4054;DHT22;2042;47.956;9.222;2023-09-12T02:54:46;11.50;22.60
4054;DHT22;2042;47.956;9.222;2023-09-12T02:57:12;11.50;22.40
4054;DHT22;2042;47.956;9.222;2023-09-12T02:59:37;11.50;22.50
4054;DHT22;2042;47.956;9.222;2023-09-12T03:02:04;11.40;22.50
4054;DHT22;2042;47.956;9.222;2023-09-12T03:04:30;11.40;22.60
4054;DHT22;2042;47.956;9.222;2023-09-12T03:06:55;11.40;22.50
4054;DHT22;2042;47.956;9.222;2023-09-12T03:09:21;11.30;22.00
4054;DHT22;2042;47.956;9.222;2023-09-12T03:11:49;11.20;21.50
4054;DHT22;2042;47.956;9.222;2023-09-12T03:14:15;11.10;21.10
4054;DHT22;2042;47.956;9.222;2023-09-12T03:16:40;11.10;21.10
4054;DHT22;2042;47.956;9.222;2023-09-12T03:19:06;11.00;21.10
4054;DHT22;2042;47.956;9.222;2023-09-12T03:21:31;11.00;21.20
4054;DHT22;2042;47.956;9.222;2023-09-12T03:23:57;10.90;21.40
4054;DHT22;2042;47.956;9.222;2023-09-12T03:26:23;10.90;21.60
4054;DHT22;2042;47.956;9.222;2023-09-12T03:28:51;10.90;21.80
4054;DHT22;2042;47.956;9.222;2023-09-12T03:31:18;10.90;22.00
4054;DHT22;2042;47.956;9.222;2023-09-12T03:33:44;10.90;21.70
4054;DHT22;2042;47.956;9.222;2023-09-12T03:36:15;10.90;21.80
4054;DHT22;2042;47.956;9.222;2023-09-12T03:38:41;10.90;21.70
4054;DHT22;2042;47.956;9.222;2023-09-12T03:41:07;10.90;21.90
4054;DHT22;2042;47.956;9.222;2023-09-12T03:43:33;10.90;22.30
4054;DHT22;2042;47.956;9.222;2023-09-12T03:45:59;10.90;22.70
4054;DHT22;2042;47.956;9.222;2023-09-12T03:48:25;10.90;22.60
4054;DHT22;2042;47.956;9.222;2023-09-12T03:50:51;10.90;22.50
4054;DHT22;2042;47.956;9.222;2023-09-12T03:53:17;10.90;22.70
4054;DHT22;2042;47.956;9.222;2023-09-12T03:55:43;11.00;22.70
4054;DHT22;2042;47.956;9.222;2023-09-12T03:58:09;10.90;22.70
4054;DHT22;2042;47.956;9.222;2023-09-12T04:00:34;10.90;22.50
4054;DHT22;2042;47.956;9.222;2023-09-12T04:03:00;10.90;22.40
4054;DHT22;2042;47.956;9.222;2023-09-12T04:05:26;10.90;22.60
4054;DHT22;2042;47.956;9.222;2023-09-12T04:07:52;10.90;23.00
4054;DHT22;2042;47.956;9.222;2023-09-12T04:10:21;10.90;23.30
4054;DHT22;2042;47.956;9.222;2023-09-12T04:12:46;10.90;23.00
4054;DHT22;2042;47.956;9.222;2023-09-12T04:15:12;10.90;22.90
4054;DHT22;2042;47.956;9.222;2023-09-12T04:17:38;10.90;22.90
4054;DHT22;2042;47.956;9.222;2023-09-12T04:20:04;10.90;23.00
4054;DHT22;2042;47.956;9.222;2023-09-12T04:22:30;10.90;23.20
4054;DHT22;2042;47.956;9.222;2023-09-12T04:24:56;10.90;23.50
4054;DHT22;2042;47.956;9.222;2023-09-12T04:27:21;10.90;23.70
4054;DHT22;2042;47.956;9.222;2023-09-12T04:29:47;10.90;23.80
4054;DHT22;2042;47.956;9.222;2023-09-12T04:32:12;10.90;23.70
4054;DHT22;2042;47.956;9.222;2023-09-12T04:34:38;10.90;23.60
4054;DHT22;2042;47.956;9.222;2023-09-12T04:37:04;10.80;22.70
4054;DHT22;2042;47.956;9.222;2023-09-12T04:39:31;10.80;22.40
4054;DHT22;2042;47.956;9.222;2023-09-12T04:41:56;10.70;21.80
4054;DHT22;2042;47.956;9.222;2023-09-12T04:44:22;10.60;21.80
4054;DHT22;2042;47.956;9.222;2023-09-12T04:46:47;10.60;22.20
4054;DHT22;2042;47.956;9.222;2023-09-12T04:49:14;10.60;22.40
4054;DHT22;2042;47.956;9.222;2023-09-12T04:51:39;10.50;22.40
4054;DHT22;2042;47.956;9.222;2023-09-12T04:54:05;10.50;22.60
4054;DHT22;2042;47.956;9.222;2023-09-12T04:56:31;10.50;22.90
4054;DHT22;2042;47.956;9.222;2023-09-12T04:58:56;10.50;23.00
4054;DHT22;2042;47.956;9.222;2023-09-12T05:01:22;10.50;23.10
4054;DHT22;2042;47.956;9.222;2023-09-12T05:03:48;10.50;22.90
4054;DHT22;2042;47.956;9.222;2023-09-12T05:06:14;10.50;22.90
4054;DHT22;2042;47.956;9.222;2023-09-12T05:08:40;10.50;23.30
4054;DHT22;2042;47.956;9.222;2023-09-12T05:11:05;10.50;24.10
4054;DHT22;2042;47.956;9.222;2023-09-12T05:13:31;10.60;24.30
4054;DHT22;2042;47.956;9.222;2023-09-12T05:15:57;10.80;24.60
4054;DHT22;2042;47.956;9.222;2023-09-12T05:18:23;10.90;24.90
4054;DHT22;2042;47.956;9.222;2023-09-12T05:20:49;10.90;24.90
4054;DHT22;2042;47.956;9.222;2023-09-12T05:23:14;11.00;24.90
4054;DHT22;2042;47.956;9.222;2023-09-12T05:25:40;11.10;25.00
4054;DHT22;2042;47.956;9.222;2023-09-12T05:28:06;11.20;25.40
4054;DHT22;2042;47.956;9.222;2023-09-12T05:30:31;11.30;25.80
4054;DHT22;2042;47.956;9.222;2023-09-12T05:32:57;11.50;26.10
4054;DHT22;2042;47.956;9.222;2023-09-12T05:35:22;11.60;26.00
4054;DHT22;2042;47.956;9.222;2023-09-12T05:37:49;11.80;26.30
4054;DHT22;2042;47.956;9.222;2023-09-12T05:40:15;11.90;26.50
4054;DHT22;2042;47.956;9.222;2023-09-12T05:42:41;12.10;26.90
4054;DHT22;2042;47.956;9.222;2023-09-12T05:45:06;12.30;27.30
4054;DHT22;2042;47.956;9.222;2023-09-12T05:47:32;12.50;27.70
4054;DHT22;2042;47.956;9.222;2023-09-12T05:49:58;12.70;28.20
4054;DHT22;2042;47.956;9.222;2023-09-12T05:52:25;13.00;28.90
4054;DHT22;2042;47.956;9.222;2023-09-12T05:54:50;13.40;29.50
4054;DHT22;2042;47.956;9.222;2023-09-12T05:57:16;13.70;29.90
4054;DHT22;2042;47.956;9.222;2023-09-12T05:59:42;14.10;30.40
4054;DHT22;2042;47.956;9.222;2023-09-12T06:02:08;14.50;30.70
4054;DHT22;2042;47.956;9.222;2023-09-12T06:04:36;14.90;29.90
4054;DHT22;2042;47.956;9.222;2023-09-12T06:07:02;15.20;27.70
4054;DHT22;2042;47.956;9.222;2023-09-12T06:09:29;15.60;27.80
4054;DHT22;2042;47.956;9.222;2023-09-12T06:11:55;15.90;24.40
4054;DHT22;2042;47.956;9.222;2023-09-12T06:14:20;16.10;18.50
4054;DHT22;2042;47.956;9.222;2023-09-12T06:16:46;16.00;13.20
4054;DHT22;2042;47.956;9.222;2023-09-12T06:19:12;16.00;10.10
4054;DHT22;2042;47.956;9.222;2023-09-12T06:21:37;15.90;8.30
4054;DHT22;2042;47.956;9.222;2023-09-12T06:24:14;15.80;8.00
4054;DHT22;2042;47.956;9.222;2023-09-12T06:26:41;15.80;8.10
4054;DHT22;2042;47.956;9.222;2023-09-12T06:29:07;15.70;8.50
4054;DHT22;2042;47.956;9.222;2023-09-12T06:31:33;15.80;8.70
4054;DHT22;2042;47.956;9.222;2023-09-12T06:33:58;15.90;9.40
4054;DHT22;2042;47.956;9.222;2023-09-12T06:36:25;16.10;9.30
4054;DHT22;2042;47.956;9.222;2023-09-12T06:38:51;16.30;9.50
4054;DHT22;2042;47.956;9.222;2023-09-12T06:41:20;16.60;10.60
4054;DHT22;2042;47.956;9.222;2023-09-12T06:43:45;17.00;10.70
4054;DHT22;2042;47.956;9.222;2023-09-12T06:46:11;17.30;9.30
4054;DHT22;2042;47.956;9.222;2023-09-12T06:48:37;17.60;7.80
4054;DHT22;2042;47.956;9.222;2023-09-12T06:51:08;18.00;6.40
4054;DHT22;2042;47.956;9.222;2023-09-12T06:53:33;18.30;5.70
4054;DHT22;2042;47.956;9.222;2023-09-12T06:55:59;18.60;3.60
4054;DHT22;2042;47.956;9.222;2023-09-12T06:58:25;18.90;1.10
4054;DHT22;2042;47.956;9.222;2023-09-12T07:00:51;19.20;1.00
4054;DHT22;2042;47.956;9.222;2023-09-12T07:03:16;19.40;1.00
4054;DHT22;2042;47.956;9.222;2023-09-12T07:05:43;19.70;1.00
4054;DHT22;2042;47.956;9.222;2023-09-12T07:08:09;20.10;1.00
4054;DHT22;2042;47.956;9.222;2023-09-12T07:10:35;20.20;1.00
4054;DHT22;2042;47.956;9.222;2023-09-12T07:13:01;20.30;1.00
4054;DHT22;2042;47.956;9.222;2023-09-12T07:15:27;20.30;1.00
4054;DHT22;2042;47.956;9.222;2023-09-12T07:17:52;20.30;1.00
4054;DHT22;2042;47.956;9.222;2023-09-12T07:20:18;20.40;1.00
4054;DHT22;2042;47.956;9.222;2023-09-12T07:22:46;20.50;1.00
4054;DHT22;2042;47.956;9.222;2023-09-12T07:25:13;20.60;1.00
4054;DHT22;2042;47.956;9.222;2023-09-12T07:27:39;20.60;1.00
4054;DHT22;2042;47.956;9.222;2023-09-12T07:30:06;20.60;1.00
4054;DHT22;2042;47.956;9.222;2023-09-12T07:32:31;20.60;1.00
4054;DHT22;2042;47.956;9.222;2023-09-12T07:34:57;20.60;1.00
4054;DHT22;2042;47.956;9.222;2023-09-12T07:37:23;20.60;1.00
4054;DHT22;2042;47.956;9.222;2023-09-12T07:39:48;20.70;1.00
4054;DHT22;2042;47.956;9.222;2023-09-12T07:42:14;21.10;1.00
4054;DHT22;2042;47.956;9.222;2023-09-12T07:44:39;21.50;1.00
4054;DHT22;2042;47.956;9.222;2023-09-12T07:47:05;22.30;1.00
4054;DHT22;2042;47.956;9.222;2023-09-12T07:49:31;23.50;1.00
4054;DHT22;2042;47.956;9.222;2023-09-12T07:51:56;24.90;1.00
4054;DHT22;2042;47.956;9.222;2023-09-12T07:54:22;26.30;1.00
4054;DHT22;2042;47.956;9.222;2023-09-12T07:56:48;27.80;1.00
4054;DHT22;2042;47.956;9.222;2023-09-12T07:59:14;29.10;1.00
4054;DHT22;2042;47.956;9.222;2023-09-12T08:01:40;29.80;1.00
4054;DHT22;2042;47.956;9.222;2023-09-12T08:04:06;29.90;1.00
4054;DHT22;2042;47.956;9.222;2023-09-12T08:06:32;29.90;1.00
4054;DHT22;2042;47.956;9.222;2023-09-12T08:08:58;29.90;1.00
4054;DHT22;2042;47.956;9.222;2023-09-12T08:11:25;30.10;1.00
4054;DHT22;2042;47.956;9.222;2023-09-12T08:13:52;30.80;1.00
4054;DHT22;2042;47.956;9.222;2023-09-12T08:16:18;31.40;1.00
4054;DHT22;2042;47.956;9.222;2023-09-12T08:18:43;32.00;1.00
4054;DHT22;2042;47.956;9.222;2023-09-12T08:21:10;32.80;1.00
4054;DHT22;2042;47.956;9.222;2023-09-12T08:23:35;33.70;1.00
4054;DHT22;2042;47.956;9.222;2023-09-12T08:26:01;34.10;1.00
4054;DHT22;2042;47.956;9.222;2023-09-12T08:28:27;34.70;1.00
4054;DHT22;2042;47.956;9.222;2023-09-12T08:30:52;35.60;1.00
4054;DHT22;2042;47.956;9.222;2023-09-12T08:33:18;36.10;1.00
4054;DHT22;2042;47.956;9.222;2023-09-12T08:35:44;36.30;1.00
4054;DHT22;2042;47.956;9.222;2023-09-12T08:38:09;36.70;1.00
4054;DHT22;2042;47.956;9.222;2023-09-12T08:40:36;36.80;1.00
4054;DHT22;2042;47.956;9.222;2023-09-12T08:43:02;37.20;1.00
4054;DHT22;2042;47.956;9.222;2023-09-12T08:45:31;37.70;1.00
4054;DHT22;2042;47.956;9.222;2023-09-12T08:47:59;38.50;1.00
4054;DHT22;2042;47.956;9.222;2023-09-12T08:50:28;38.80;1.00
4054;DHT22;2042;47.956;9.222;2023-09-12T08:52:58;38.80;1.00
4054;DHT22;2042;47.956;9.222;2023-09-12T08:55:23;39.10;1.00
4054;DHT22;2042;47.956;9.222;2023-09-12T08:57:50;38.90;1.00
4054;DHT22;2042;47.956;9.222;2023-09-12T09:00:16;38.90;1.00
4054;DHT22;2042;47.956;9.222;2023-09-12T09:02:43;39.00;1.00
4054;DHT22;2042;47.956;9.222;2023-09-12T09:05:11;39.20;1.00
4054;DHT22;2042;47.956;9.222;2023-09-12T09:07:38;39.70;1.00
4054;DHT22;2042;47.956;9.222;2023-09-12T09:10:06;39.70;1.00
4054;DHT22;2042;47.956;9.222;2023-09-12T09:12:33;40.00;1.00
4054;DHT22;2042;47.956;9.222;2023-09-12T09:15:20;40.20;1.00
4054;DHT22;2042;47.956;9.222;2023-09-12T09:17:46;40.80;1.00
4054;DHT22;2042;47.956;9.222;2023-09-12T09:23:09;41.80;1.00
4054;DHT22;2042;47.956;9.222;2023-09-12T09:25:37;41.70;1.00
4054;DHT22;2042;47.956;9.222;2023-09-12T09:28:05;41.70;1.00
4054;DHT22;2042;47.956;9.222;2023-09-12T09:30:50;41.70;1.00
4054;DHT22;2042;47.956;9.222;2023-09-12T09:33:17;41.50;1.00
4054;DHT22;2042;47.956;9.222;2023-09-12T09:35:45;40.70;1.00
4054;DHT22;2042;47.956;9.222;2023-09-12T09:38:11;39.80;1.00
4054;DHT22;2042;47.956;9.222;2023-09-12T09:40:45;39.70;1.00
4054;DHT22;2042;47.956;9.222;2023-09-12T09:43:11;39.30;1.00
4054;DHT22;2042;47.956;9.222;2023-09-12T09:45:46;38.90;1.00
4054;DHT22;2042;47.956;9.222;2023-09-12T09:48:22;38.90;1.00
4054;DHT22;2042;47.956;9.222;2023-09-12T09:50:49;39.30;1.00
4054;DHT22;2042;47.956;9.222;2023-09-12T09:53:14;39.30;1.00
4054;DHT22;2042;47.956;9.222;2023-09-12T09:55:40;39.60;1.00
4054;DHT22;2042;47.956;9.222;2023-09-12T09:58:07;39.90;1.00
4054;DHT22;2042;47.956;9.222;2023-09-12T10:00:36;40.10;1.00
4054;DHT22;2042;47.956;9.222;2023-09-12T10:03:04;40.70;1.00
4054;DHT22;2042;47.956;9.222;2023-09-12T10:05:37;41.40;1.00
4054;DHT22;2042;47.956;9.222;2023-09-12T10:08:06;42.20;1.00
4054;DHT22;2042;47.956;9.222;2023-09-12T10:10:35;42.30;1.00
4054;DHT22;2042;47.956;9.222;2023-09-12T10:13:03;42.40;1.00
4054;DHT22;2042;47.956;9.222;2023-09-12T10:15:30;42.50;1.00
4054;DHT22;2042;47.956;9.222;2023-09-12T10:18:02;42.80;1.00
4054;DHT22;2042;47.956;9.222;2023-09-12T10:20:45;43.10;1.00
4054;DHT22;2042;47.956;9.222;2023-09-12T10:23:23;43.70;1.00
4054;DHT22;2042;47.956;9.222;2023-09-12T10:25:54;44.20;1.00
4054;DHT22;2042;47.956;9.222;2023-09-12T10:28:21;44.40;1.00
4054;DHT22;2042;47.956;9.222;2023-09-12T10:30:47;44.30;1.00
4054;DHT22;2042;47.956;9.222;2023-09-12T10:33:15;44.00;1.00
4054;DHT22;2042;47.956;9.222;2023-09-12T10:35:44;44.00;1.00
4054;DHT22;2042;47.956;9.222;2023-09-12T10:38:12;44.10;1.00
4054;DHT22;2042;47.956;9.222;2023-09-12T10:40:40;44.00;1.00
4054;DHT22;2042;47.956;9.222;2023-09-12T10:43:06;44.30;1.00
4054;DHT22;2042;47.956;9.222;2023-09-12T10:45:36;44.30;1.00
4054;DHT22;2042;47.956;9.222;2023-09-12T10:48:04;44.00;1.00
4054;DHT22;2042;47.956;9.222;2023-09-12T10:50:30;44.10;1.00
4054;DHT22;2042;47.956;9.222;2023-09-12T10:53:07;44.30;1.00
4054;DHT22;2042;47.956;9.222;2023-09-12T10:55:33;44.60;1.00
4054;DHT22;2042;47.956;9.222;2023-09-12T11:00:28;45.10;1.00
4054;DHT22;2042;47.956;9.222;2023-09-12T11:02:54;45.20;1.00
4054;DHT22;2042;47.956;9.222;2023-09-12T11:07:59;44.90;1.00
4054;DHT22;2042;47.956;9.222;2023-09-12T11:10:26;44.90;1.00
4054;DHT22;2042;47.956;9.222;2023-09-12T11:12:53;44.60;1.00
4054;DHT22;2042;47.956;9.222;2023-09-12T11:15:22;44.30;1.00
4054;DHT22;2042;47.956;9.222;2023-09-12T11:17:49;44.30;1.00
4054;DHT22;2042;47.956;9.222;2023-09-12T11:20:16;44.30;1.00
4054;DHT22;2042;47.956;9.222;2023-09-12T11:22:43;44.40;1.00
4054;DHT22;2042;47.956;9.222;2023-09-12T11:25:25;44.50;1.00
4054;DHT22;2042;47.956;9.222;2023-09-12T11:30:24;44.20;1.00
4054;DHT22;2042;47.956;9.222;2023-09-12T11:32:52;44.00;1.00
4054;DHT22;2042;47.956;9.222;2023-09-12T11:35:26;42.70;1.00
4054;DHT22;2042;47.956;9.222;2023-09-12T11:37:57;41.80;1.00
4054;DHT22;2042;47.956;9.222;2023-09-12T11:40:25;41.80;1.00
4054;DHT22;2042;47.956;9.222;2023-09-12T11:42:52;41.90;1.00
4054;DHT22;2042;47.956;9.222;2023-09-12T11:45:19;41.60;1.00
4054;DHT22;2042;47.956;9.222;2023-09-12T11:47:46;41.20;1.00
4054;DHT22;2042;47.956;9.222;2023-09-12T11:50:34;41.50;1.00
4054;DHT22;2042;47.956;9.222;2023-09-12T11:53:06;41.70;1.00
4054;DHT22;2042;47.956;9.222;2023-09-12T11:55:55;41.30;1.00
4054;DHT22;2042;47.956;9.222;2023-09-12T11:58:22;41.40;1.00
4054;DHT22;2042;47.956;9.222;2023-09-12T12:00:49;41.80;1.00
4054;DHT22;2042;47.956;9.222;2023-09-12T12:03:16;42.20;1.00
4054;DHT22;2042;47.956;9.222;2023-09-12T12:05:42;42.50;1.00
4054;DHT22;2042;47.956;9.222;2023-09-12T12:08:08;42.80;1.00
4054;DHT22;2042;47.956;9.222;2023-09-12T12:10:36;42.60;1.00
4054;DHT22;2042;47.956;9.222;2023-09-12T12:13:03;42.00;1.00
4054;DHT22;2042;47.956;9.222;2023-09-12T12:15:29;42.20;1.00
4054;DHT22;2042;47.956;9.222;2023-09-12T12:17:56;42.70;1.00
4054;DHT22;2042;47.956;9.222;2023-09-12T12:20:22;42.20;1.00
4054;DHT22;2042;47.956;9.222;2023-09-12T12:22:47;41.20;1.00
4054;DHT22;2042;47.956;9.222;2023-09-12T12:25:14;39.70;1.00
4054;DHT22;2042;47.956;9.222;2023-09-12T12:27:41;38.30;1.00
4054;DHT22;2042;47.956;9.222;2023-09-12T12:30:12;37.30;1.00
4054;DHT22;2042;47.956;9.222;2023-09-12T12:32:46;36.60;1.00
4054;DHT22;2042;47.956;9.222;2023-09-12T12:35:22;36.40;1.00
4054;DHT22;2042;47.956;9.222;2023-09-12T12:37:49;36.30;1.00
4054;DHT22;2042;47.956;9.222;2023-09-12T12:40:15;36.00;1.00
4054;DHT22;2042;47.956;9.222;2023-09-12T12:42:43;36.50;1.00
4054;DHT22;2042;47.956;9.222;2023-09-12T12:45:15;38.00;1.00
4054;DHT22;2042;47.956;9.222;2023-09-12T12:47:41;39.40;1.00
4054;DHT22;2042;47.956;9.222;2023-09-12T12:50:17;40.50;1.00
4054;DHT22;2042;47.956;9.222;2023-09-12T12:52:47;41.30;1.00
4054;DHT22;2042;47.956;9.222;2023-09-12T12:55:13;41.80;1.00
4054;DHT22;2042;47.956;9.222;2023-09-12T12:57:43;42.30;1.00
4054;DHT22;2042;47.956;9.222;2023-09-12T13:00:14;42.50;1.00
4054;DHT22;2042;47.956;9.222;2023-09-12T13:02:41;42.70;1.00
4054;DHT22;2042;47.956;9.222;2023-09-12T13:07:45;42.90;1.00
4054;DHT22;2042;47.956;9.222;2023-09-12T13:10:11;43.00;1.00
4054;DHT22;2042;47.956;9.222;2023-09-12T13:12:37;42.90;1.00
4054;DHT22;2042;47.956;9.222;2023-09-12T13:15:05;42.60;1.00
4054;DHT22;2042;47.956;9.222;2023-09-12T13:17:32;42.70;1.00
4054;DHT22;2042;47.956;9.222;2023-09-12T13:19:58;42.90;1.00
4054;DHT22;2042;47.956;9.222;2023-09-12T13:22:23;42.80;1.00
4054;DHT22;2042;47.956;9.222;2023-09-12T13:24:49;43.10;1.00
4054;DHT22;2042;47.956;9.222;2023-09-12T13:27:14;43.00;1.00
4054;DHT22;2042;47.956;9.222;2023-09-12T13:29:40;42.30;1.00
4054;DHT22;2042;47.956;9.222;2023-09-12T13:32:06;41.80;1.00
4054;DHT22;2042;47.956;9.222;2023-09-12T13:34:32;41.40;1.00
4054;DHT22;2042;47.956;9.222;2023-09-12T13:36:57;40.50;1.00
4054;DHT22;2042;47.956;9.222;2023-09-12T13:39:24;39.90;1.00
4054;DHT22;2042;47.956;9.222;2023-09-12T13:41:50;39.20;1.00
4054;DHT22;2042;47.956;9.222;2023-09-12T13:44:17;38.30;1.00
4054;DHT22;2042;47.956;9.222;2023-09-12T13:46:42;37.50;1.00
4054;DHT22;2042;47.956;9.222;2023-09-12T13:49:11;36.70;1.00
4054;DHT22;2042;47.956;9.222;2023-09-12T13:51:36;35.90;1.00
4054;DHT22;2042;47.956;9.222;2023-09-12T13:54:03;35.00;1.00
4054;DHT22;2042;47.956;9.222;2023-09-12T13:56:28;34.50;1.00
4054;DHT22;2042;47.956;9.222;2023-09-12T13:58:54;34.50;1.00
4054;DHT22;2042;47.956;9.222;2023-09-12T14:01:20;34.60;1.00
4054;DHT22;2042;47.956;9.222;2023-09-12T14:03:46;34.70;1.00
4054;DHT22;2042;47.956;9.222;2023-09-12T14:06:12;34.40;1.00
4054;DHT22;2042;47.956;9.222;2023-09-12T14:08:37;34.00;1.00
4054;DHT22;2042;47.956;9.222;2023-09-12T14:11:03;33.60;1.00
4054;DHT22;2042;47.956;9.222;2023-09-12T14:13:29;33.20;1.00
4054;DHT22;2042;47.956;9.222;2023-09-12T14:15:55;32.90;1.00
4054;DHT22;2042;47.956;9.222;2023-09-12T14:18:21;32.70;1.00
4054;DHT22;2042;47.956;9.222;2023-09-12T14:20:46;32.50;1.00
4054;DHT22;2042;47.956;9.222;2023-09-12T14:23:12;32.10;1.00
4054;DHT22;2042;47.956;9.222;2023-09-12T14:25:38;31.70;1.00
4054;DHT22;2042;47.956;9.222;2023-09-12T14:28:04;31.40;1.00
4054;DHT22;2042;47.956;9.222;2023-09-12T14:30:30;31.00;1.00
4054;DHT22;2042;47.956;9.222;2023-09-12T14:33:01;30.80;1.00
4054;DHT22;2042;47.956;9.222;2023-09-12T14:35:27;30.60;1.00
4054;DHT22;2042;47.956;9.222;2023-09-12T14:37:53;30.40;1.00
4054;DHT22;2042;47.956;9.222;2023-09-12T14:40:19;30.10;1.00
4054;DHT22;2042;47.956;9.222;2023-09-12T14:42:44;29.60;1.00
4054;DHT22;2042;47.956;9.222;2023-09-12T14:45:10;29.20;1.00
4054;DHT22;2042;47.956;9.222;2023-09-12T14:47:36;28.90;1.00
4054;DHT22;2042;47.956;9.222;2023-09-12T14:50:02;28.80;1.00
4054;DHT22;2042;47.956;9.222;2023-09-12T14:52:27;28.70;1.00
4054;DHT22;2042;47.956;9.222;2023-09-12T14:54:53;28.60;1.00
4054;DHT22;2042;47.956;9.222;2023-09-12T14:57:19;28.40;1.00
4054;DHT22;2042;47.956;9.222;2023-09-12T14:59:45;28.10;1.00
4054;DHT22;2042;47.956;9.222;2023-09-12T15:02:11;27.90;1.00
4054;DHT22;2042;47.956;9.222;2023-09-12T15:04:37;27.70;1.00
4054;DHT22;2042;47.956;9.222;2023-09-12T15:07:02;27.50;1.00
4054;DHT22;2042;47.956;9.222;2023-09-12T15:09:29;27.30;1.00
4054;DHT22;2042;47.956;9.222;2023-09-12T15:11:54;27.30;1.00
4054;DHT22;2042;47.956;9.222;2023-09-12T15:14:20;27.20;1.00
4054;DHT22;2042;47.956;9.222;2023-09-12T15:16:48;27.20;1.00
4054;DHT22;2042;47.956;9.222;2023-09-12T15:19:14;27.20;1.00
4054;DHT22;2042;47.956;9.222;2023-09-12T15:21:39;27.30;1.00
4054;DHT22;2042;47.956;9.222;2023-09-12T15:24:05;27.30;1.00
4054;DHT22;2042;47.956;9.222;2023-09-12T15:26:31;27.30;1.00
4054;DHT22;2042;47.956;9.222;2023-09-12T15:28:56;27.20;1.00
4054;DHT22;2042;47.956;9.222;2023-09-12T15:31:23;27.10;1.00
4054;DHT22;2042;47.956;9.222;2023-09-12T15:33:48;26.90;1.00
4054;DHT22;2042;47.956;9.222;2023-09-12T15:36:14;26.50;1.00
4054;DHT22;2042;47.956;9.222;2023-09-12T15:38:40;26.10;1.00
4054;DHT22;2042;47.956;9.222;2023-09-12T15:41:06;25.90;1.00
4054;DHT22;2042;47.956;9.222;2023-09-12T15:43:33;25.70;1.00
4054;DHT22;2042;47.956;9.222;2023-09-12T15:45:59;25.60;1.00
4054;DHT22;2042;47.956;9.222;2023-09-12T15:48:25;25.60;1.00
4054;DHT22;2042;47.956;9.222;2023-09-12T15:50:51;25.50;1.00
4054;DHT22;2042;47.956;9.222;2023-09-12T15:53:16;25.50;1.00
4054;DHT22;2042;47.956;9.222;2023-09-12T15:55:42;25.50;1.00
4054;DHT22;2042;47.956;9.222;2023-09-12T15:58:07;25.40;1.00
4054;DHT22;2042;47.956;9.222;2023-09-12T16:00:34;25.30;1.00
4054;DHT22;2042;47.956;9.222;2023-09-12T16:02:59;25.20;1.00
4054;DHT22;2042;47.956;9.222;2023-09-12T16:05:25;25.20;1.00
4054;DHT22;2042;47.956;9.222;2023-09-12T16:07:51;25.20;1.00
4054;DHT22;2042;47.956;9.222;2023-09-12T16:10:16;25.30;1.00
4054;DHT22;2042;47.956;9.222;2023-09-12T16:12:42;25.50;1.00
4054;DHT22;2042;47.956;9.222;2023-09-12T16:15:08;25.70;1.00
4054;DHT22;2042;47.956;9.222;2023-09-12T16:17:34;25.80;1.00
4054;DHT22;2042;47.956;9.222;2023-09-12T16:20:07;25.80;1.00
4054;DHT22;2042;47.956;9.222;2023-09-12T16:22:35;25.70;1.00
4054;DHT22;2042;47.956;9.222;2023-09-12T16:25:00;25.50;1.00
4054;DHT22;2042;47.956;9.222;2023-09-12T16:27:26;25.30;1.00
4054;DHT22;2042;47.956;9.222;2023-09-12T16:29:51;25.00;1.00